Pagrindinis puslapis
METAR-TAF:

METAR-TAF

Oro uostai :

Kwethluk, Aliaska, Jungtinės Amerikos Valstijos

platuma: 60-47-25N, ilguma: 161-26-37W, Aukštis: 9 m

Dabartinis oras

Ataskaita buvo paskelbta 24 minutes, ne 04:56 UTC
Vėjas 7 kt iš Šiaurės
Temperatūra -18°C
Drėgmė 65%
Slėgis 1013 hPa
Matomumas: 16.1 km
Giedras dangus

METAR: PFKW 280456Z AUTO 01007KT 10SM CLR M18/M23 A2992 RMK AO2 SLP133 T11831228 FZRANO

Laikas: 20:20 (05:20 UTC)


TAF: trūkstamas

Orai ataskaitas ir orų prognozės (METAR, TAF).

turimą stotys yra geltonos ir raudonos taškus žemėlapyje.

Perkelti pele per norėdami pamatyti stoties vardą.

Tada spustelėkite, norėdami matyti oro stebėjimo ir prognozės.

Norėdami pakeisti žemėlapį: spustelėkite ant žalios mygtukų su juodo kryžiaus žemyn,; žalią mygtuką su brūkšneliu, jei norite nutolinti; arba žalių rodyklių gretimoms žemėlapius.


METAR-TAF: